createdAt,value
2022-12-31T00:00:25.093Z,27.00
2022-12-31T00:05:48.041Z,28.00
2022-12-31T00:10:51.151Z,26.60
2022-12-31T00:15:54.152Z,27.80
2022-12-31T00:20:57.267Z,34.10
2022-12-31T00:26:08.973Z,26.60
2022-12-31T00:31:18.368Z,27.90
2022-12-31T00:36:23.869Z,27.30
2022-12-31T00:41:27.816Z,27.70
2022-12-31T00:46:32.064Z,24.90
2022-12-31T00:51:35.273Z,33.60
2022-12-31T00:56:38.384Z,27.90
2022-12-31T01:01:42.881Z,29.80
2022-12-31T01:06:46.603Z,27.50
2022-12-31T01:11:51.901Z,31.30
2022-12-31T01:16:54.907Z,25.70
2022-12-31T01:21:58.221Z,27.20
2022-12-31T01:27:01.532Z,25.70
2022-12-31T01:32:05.422Z,28.40
2022-12-31T01:37:08.367Z,24.20
2022-12-31T01:42:12.388Z,33.90
2022-12-31T01:47:19.045Z,28.90
2022-12-31T01:52:34.487Z,26.10
2022-12-31T01:57:38.254Z,33.30
2022-12-31T02:02:41.433Z,37.00
2022-12-31T02:07:45.321Z,31.30
2022-12-31T02:12:48.947Z,36.90
2022-12-31T02:18:15.324Z,34.00
2022-12-31T02:23:36.566Z,30.90
2022-12-31T02:28:51.441Z,29.90
2022-12-31T02:34:06.531Z,32.50
2022-12-31T02:39:11.211Z,30.70
2022-12-31T02:44:37.222Z,33.00
2022-12-31T02:50:01.427Z,33.50
2022-12-31T02:55:10.370Z,37.40
2022-12-31T03:00:35.237Z,27.40
2022-12-31T03:05:42.608Z,26.60
2022-12-31T03:10:45.605Z,27.60
2022-12-31T03:15:48.766Z,26.70
2022-12-31T03:21:10.569Z,26.40
2022-12-31T03:26:13.568Z,22.10
2022-12-31T03:31:16.555Z,24.60
2022-12-31T03:36:19.581Z,22.50
2022-12-31T03:41:22.485Z,24.90
2022-12-31T03:46:25.389Z,22.80
2022-12-31T03:51:28.309Z,22.80
2022-12-31T03:56:31.301Z,24.60
2022-12-31T04:01:34.272Z,24.30
2022-12-31T04:06:37.313Z,21.70
2022-12-31T04:11:40.218Z,23.20
2022-12-31T04:16:44.122Z,21.70
2022-12-31T04:21:47.048Z,22.10
2022-12-31T04:26:50.465Z,23.40
2022-12-31T04:31:53.739Z,20.40
2022-12-31T04:36:56.948Z,20.80
2022-12-31T04:42:00.003Z,22.50
2022-12-31T04:47:03.001Z,21.90
2022-12-31T04:52:06.331Z,23.20
2022-12-31T04:57:09.266Z,23.70
2022-12-31T05:02:12.681Z,22.80
2022-12-31T05:07:15.954Z,26.70
2022-12-31T05:12:19.159Z,22.10
2022-12-31T05:17:22.065Z,23.50
2022-12-31T05:22:30.798Z,23.00
2022-12-31T05:27:34.226Z,22.30
2022-12-31T05:32:37.638Z,20.00
2022-12-31T05:37:40.851Z,18.70
2022-12-31T05:42:44.469Z,20.10
2022-12-31T05:47:47.491Z,18.20
2022-12-31T05:52:50.597Z,21.90
2022-12-31T05:57:53.907Z,23.70
2022-12-31T06:02:56.900Z,17.40
2022-12-31T06:08:00.012Z,21.30
2022-12-31T06:13:03.337Z,19.60
2022-12-31T06:18:06.791Z,18.50
2022-12-31T06:23:09.752Z,18.00
2022-12-31T06:28:19.678Z,20.80
2022-12-31T06:33:23.550Z,19.60
2022-12-31T06:38:28.389Z,17.70
2022-12-31T06:43:31.508Z,19.40
2022-12-31T06:48:35.029Z,17.20
2022-12-31T06:53:38.022Z,17.10
2022-12-31T06:58:41.646Z,16.40
2022-12-31T07:04:12.927Z,16.10
2022-12-31T07:09:22.683Z,15.80
2022-12-31T07:14:54.780Z,16.70
2022-12-31T07:20:06.802Z,17.40
2022-12-31T07:25:15.125Z,18.00
2022-12-31T07:30:21.596Z,17.80
2022-12-31T07:35:48.798Z,17.60
2022-12-31T07:41:09.763Z,15.60
2022-12-31T07:46:26.367Z,20.30
2022-12-31T07:51:30.054Z,16.60
2022-12-31T07:56:33.269Z,16.40
2022-12-31T08:02:01.525Z,16.80
2022-12-31T08:07:41.040Z,14.90
2022-12-31T08:12:47.248Z,16.70
2022-12-31T08:17:50.831Z,17.80
2022-12-31T08:23:10.074Z,14.00
2022-12-31T08:28:39.338Z,13.80
2022-12-31T08:34:05.523Z,14.20
2022-12-31T08:39:41.364Z,19.50
2022-12-31T08:44:55.849Z,14.40
2022-12-31T08:49:59.128Z,13.20
2022-12-31T08:55:02.952Z,14.00
2022-12-31T09:00:15.237Z,14.40
2022-12-31T09:05:43.429Z,16.10
2022-12-31T09:11:07.922Z,15.50
2022-12-31T09:16:32.365Z,13.20
2022-12-31T09:21:35.845Z,12.80
2022-12-31T09:26:50.912Z,11.70
2022-12-31T09:32:12.493Z,13.10
2022-12-31T09:37:21.897Z,14.00
2022-12-31T09:42:56.066Z,12.30
2022-12-31T09:48:17.302Z,11.30
2022-12-31T09:53:36.091Z,14.00
2022-12-31T09:58:52.159Z,13.20
2022-12-31T10:04:19.364Z,12.40
2022-12-31T10:09:53.598Z,16.90
2022-12-31T10:15:14.836Z,12.60
2022-12-31T10:20:43.360Z,13.50
2022-12-31T10:26:11.029Z,14.60
2022-12-31T10:31:35.948Z,17.50
2022-12-31T10:36:48.884Z,13.40
2022-12-31T10:42:26.601Z,13.70
2022-12-31T10:47:54.497Z,20.90
2022-12-31T10:53:06.521Z,44.20
2022-12-31T10:58:31.128Z,37.80
2022-12-31T11:03:59.120Z,12.80
2022-12-31T11:09:23.727Z,12.80
2022-12-31T11:14:55.718Z,14.50
2022-12-31T11:20:36.614Z,13.10
2022-12-31T11:25:45.730Z,14.10
2022-12-31T11:30:51.803Z,11.70
2022-12-31T11:36:29.060Z,11.30
2022-12-31T11:41:56.767Z,13.80
2022-12-31T11:47:21.139Z,12.50
2022-12-31T11:52:32.955Z,10.20
2022-12-31T11:57:38.331Z,10.10
2022-12-31T12:03:06.449Z,13.30
2022-12-31T12:08:11.944Z,10.00
2022-12-31T12:13:14.984Z,12.20
2022-12-31T12:18:42.362Z,22.30
2022-12-31T12:24:04.734Z,58.00
2022-12-31T12:29:32.506Z,20.30
2022-12-31T12:34:47.557Z,33.00
2022-12-31T12:40:02.394Z,15.10
2022-12-31T12:45:13.920Z,14.40
2022-12-31T12:50:20.881Z,22.50
2022-12-31T12:55:51.878Z,14.40
2022-12-31T13:01:28.729Z,13.10
2022-12-31T13:06:40.124Z,23.40
2022-12-31T13:12:21.455Z,11.40
2022-12-31T13:17:24.562Z,12.20
2022-12-31T13:22:40.272Z,12.00
2022-12-31T13:27:48.178Z,13.80
2022-12-31T13:33:19.149Z,13.20
2022-12-31T13:38:46.310Z,13.40
2022-12-31T13:44:13.806Z,12.10
2022-12-31T13:49:26.756Z,10.50
2022-12-31T13:54:45.668Z,15.10
2022-12-31T13:59:54.950Z,24.40
2022-12-31T14:05:06.690Z,14.60
2022-12-31T14:10:15.126Z,10.70
2022-12-31T14:15:18.040Z,12.40
2022-12-31T14:20:27.079Z,12.80
2022-12-31T14:25:49.329Z,11.20
2022-12-31T14:30:59.103Z,12.60
2022-12-31T14:36:40.102Z,12.00
2022-12-31T14:42:29.396Z,20.20
2022-12-31T14:47:48.880Z,32.00
2022-12-31T14:52:52.003Z,21.80
2022-12-31T15:03:34.504Z,10.40
2022-12-31T15:08:43.201Z,10.60
2022-12-31T15:14:07.818Z,9.10
2022-12-31T15:19:20.136Z,9.20
2022-12-31T15:24:27.141Z,8.40
2022-12-31T15:29:34.399Z,9.30
2022-12-31T15:34:37.459Z,33.90
2022-12-31T15:39:43.033Z,37.20
2022-12-31T15:44:55.548Z,18.70
2022-12-31T15:50:04.115Z,10.80
2022-12-31T15:55:15.691Z,19.60
2022-12-31T16:00:22.088Z,68.00
2022-12-31T16:05:27.650Z,28.60
2022-12-31T16:10:33.172Z,24.50
2022-12-31T16:15:37.085Z,10.80
2022-12-31T16:20:46.164Z,9.20
2022-12-31T16:25:52.674Z,10.20
2022-12-31T16:31:08.329Z,12.00
2022-12-31T16:36:23.474Z,9.60
2022-12-31T16:41:26.584Z,12.60
2022-12-31T16:46:32.198Z,11.60
2022-12-31T16:51:37.462Z,11.20
2022-12-31T16:56:43.202Z,11.00
2022-12-31T17:01:46.962Z,10.70
2022-12-31T17:06:50.244Z,10.10
2022-12-31T17:11:54.647Z,10.60
2022-12-31T17:17:06.501Z,10.20
2022-12-31T17:22:21.703Z,10.50
2022-12-31T17:27:27.639Z,10.80
2022-12-31T17:32:36.954Z,10.10
2022-12-31T17:37:39.993Z,10.60
2022-12-31T17:42:42.999Z,10.30
2022-12-31T17:47:49.089Z,11.30
2022-12-31T17:53:12.731Z,11.70
2022-12-31T17:58:29.431Z,10.80
2022-12-31T18:03:33.235Z,8.50
2022-12-31T18:08:36.329Z,9.90
2022-12-31T18:13:39.448Z,10.70
2022-12-31T18:18:42.663Z,10.30
2022-12-31T18:23:48.087Z,9.80
2022-12-31T18:28:51.739Z,11.40
2022-12-31T18:33:57.404Z,12.30
2022-12-31T18:39:00.618Z,14.00
2022-12-31T18:44:04.136Z,11.90
2022-12-31T18:49:07.446Z,10.60
2022-12-31T18:54:12.191Z,11.70
2022-12-31T18:59:15.202Z,12.30
2022-12-31T19:04:26.965Z,12.20
2022-12-31T19:09:45.044Z,14.80
2022-12-31T19:14:49.421Z,16.70
2022-12-31T19:19:52.414Z,15.40
2022-12-31T19:24:56.039Z,13.90
2022-12-31T19:30:00.691Z,12.90
2022-12-31T19:35:03.895Z,13.60
2022-12-31T19:40:13.005Z,13.40
2022-12-31T19:45:18.810Z,12.50
2022-12-31T19:50:28.076Z,15.70
2022-12-31T19:55:33.123Z,12.40
2022-12-31T20:00:36.337Z,11.80
2022-12-31T20:05:39.242Z,12.00
2022-12-31T20:10:42.966Z,16.60
2022-12-31T20:15:47.981Z,12.40
2022-12-31T20:20:55.887Z,12.10
2022-12-31T20:26:00.226Z,11.00
2022-12-31T20:31:12.071Z,13.90
2022-12-31T20:36:16.936Z,12.80
2022-12-31T20:41:22.640Z,13.10
2022-12-31T20:46:28.952Z,12.70
2022-12-31T20:51:34.974Z,11.90
2022-12-31T20:56:40.727Z,12.20
2022-12-31T21:02:19.230Z,13.30
2022-12-31T21:07:07.138Z,12.20
2022-12-31T21:12:31.951Z,11.70
2022-12-31T21:17:34.952Z,14.40
2022-12-31T21:22:38.063Z,12.10
2022-12-31T21:27:40.966Z,11.90
2022-12-31T21:32:43.971Z,9.80
2022-12-31T21:37:58.694Z,10.90
2022-12-31T21:43:04.028Z,11.00
2022-12-31T21:48:25.234Z,10.80
2022-12-31T21:53:36.153Z,10.40
2022-12-31T21:58:46.011Z,10.40
2022-12-31T22:03:49.267Z,10.60
2022-12-31T22:08:54.791Z,15.90
2022-12-31T22:13:57.893Z,10.30
2022-12-31T22:19:01.105Z,9.80
2022-12-31T22:24:05.549Z,9.20
2022-12-31T22:29:08.652Z,9.00
2022-12-31T22:34:11.556Z,9.40
2022-12-31T22:39:43.524Z,8.40
2022-12-31T22:44:39.186Z,10.00
2022-12-31T22:49:42.184Z,15.30
2022-12-31T22:54:45.190Z,12.90
2022-12-31T22:59:48.197Z,11.10
2022-12-31T23:04:51.202Z,39.70
2022-12-31T23:10:12.846Z,25.30
2022-12-31T23:15:34.487Z,12.80
2022-12-31T23:20:57.169Z,7.90
2022-12-31T23:26:01.996Z,7.00
2022-12-31T23:31:08.054Z,6.80
2022-12-31T23:36:11.194Z,5.80
2022-12-31T23:41:19.642Z,5.40
2022-12-31T23:46:22.670Z,5.70
2022-12-31T23:51:26.052Z,6.80
2022-12-31T23:56:29.169Z,5.20
